Aiken, TX (79221)

9:22 AM CDT on April 25, 2018 (GMT -0500)
MPVST2 | | Change Station

Elev 3355 ft 34.18 °N, 101.71 °W | Updated 47 minutes ago

Overcast
Overcast
38.0 °F
Feels Like 28 °F
N
19.0
Wind Variable Wind from North
Gusts 26.0 mph

Today
High -- | Low -- °F
--% Chance of Precip.
Yesterday
High -- | Low -- °F
Precip. -- in
Pressure 30.32 in
Visibility 10.0 miles
Clouds Scattered Clouds 1200 ft
Scattered Clouds 3900 ft
Overcast 4900 ft
Windchill 28 °F
Dew Point 36 °F
Humidity 94%
Rainfall 0.00 in
Snow Depth Not available.
7:03 AM 8:25 PM
Waxing Gibbous, 79% visible
METAR KPVW 251415Z AUTO 01020G28KT 10SM SCT012 SCT039 OVC049 03/02 A3032 RMK AO2 LTG DSNT NE T00250020
Pressure 30.32 in
Visibility 10.0 miles
Clouds Scattered Clouds 1200 ft
Scattered Clouds 3900 ft
Overcast 4900 ft
Windchill 28 °F
Dew Point 36 °F
Humidity 94%
Rainfall 0.00 in
Snow Depth Not available.
7:03 AM 8:25 PM
Waxing Gibbous, 79% visible
METAR KPVW 251415Z AUTO 01020G28KT 10SM SCT012 SCT039 OVC049 03/02 A3032 RMK AO2 LTG DSNT NE T00250020

Get Severe Weather Alerts

Thanks for signing up!

Be on the lookout for a verification email in your inbox.

You'll start receiving the daily forecast at 6 AM.

×

10-Day Weather Forecast

Almanac

Astronomy

Apr. 25, 2018 Rise Set
Actual Time
Civil Twilight
Nautical Twilight
Astronomical Twilight
Moon
Length of Visible Light
Length of Day
Tomorrow will be .
, % of the Moon is Illuminated

Today's Extremes

State Highs State Lows

Community

WunderPhotos

Category 6

Welcome to Category 6. This is the collective home for Weather Underground's featured writeups by Dr. Jeff Masters (right), Bob Henson (left), Chris Burt, and other regular contributors.

Nearby

Air Quality

  Air Quality AQ Index Pollutant
Not available.

Snow Depth

Station Depth Elevation

Earthquake Activity

City Distance Mag. Time & Date
Minimum magnitude displayed is 2.5.

Coastal Water Temperatures

Place Temperature

Stations

Nearby Weather Stations

Station Location Temp. Windchill Dew Point Humidity Wind Precip. Elev Updated Type
                   

Watches & Warnings

There are currently no watches in effect.